DW9101 Weather Reports


time (UTC)temp
C
wind
direction
speed
KPH
gust
KPH
rain 1hr
cm
rain 24hr
cm
rain mn
cm
humidity
%
barometer
mb
20211017161605 20 103 1.6 4.8 0.00 0.00 0.00 57 1025.8
20211017161406 20 111 1.6 6.4 0.00 0.00 0.00 55 1025.8
20211017161205 20 121 1.6 6.4 0.00 0.00 0.00 55 1025.8
20211017161005 20 121 1.6 8.0 0.00 0.00 0.00 57 1025.8
20211017160805 19 111 1.6 8.0 0.00 0.00 0.00 57 1025.8
20211017160605 19 105 1.6 8.0 0.00 0.00 0.00 58 1025.8
20211017160405 19 110 1.6 8.0 0.00 0.00 0.00 60 1025.8
20211017160206 19 110 1.6 8.0 0.00 0.00 0.00 59 1025.8
20211017160005 19 110 1.6 6.4 0.00 0.00 0.00 54 1025.8
20211017155805 19 121 1.6 6.4 0.00 0.00 0.00 58 1025.9
20211017155605 19 126 1.6 6.4 0.00 0.00 0.00 57 1025.9
20211017155405 19 101 1.6 3.2 0.00 0.00 0.00 61 1025.9
20211017155205 18 98 1.6 3.2 0.00 0.00 0.00 62 1025.9
20211017155005 18 91 0.0 3.2 0.00 0.00 0.00 63 1025.9
20211017154805 18 67 0.0 3.2 0.00 0.00 0.00 63 1026.0
20211017154604 18 71 0.0 3.2 0.00 0.00 0.00 61 1026.0
20211017154404 18 87 0.0 3.2 0.00 0.00 0.00 63 1026.1
20211017154205 18 91 0.0 3.2 0.00 0.00 0.00 65 1026.0
20211017154005 18 91 0.0 3.2 0.00 0.00 0.00 63 1026.1
20211017153805 18 91 0.0 3.2 0.00 0.00 0.00 64 1026.1
20211017153605 18 92 0.0 3.2 0.00 0.00 0.00 65 1026.1
20211017153405 17 109 0.0 3.2 0.00 0.00 0.00 67 1026.1
20211017153205 17 113 0.0 3.2 0.00 0.00 0.00 68 1026.0
20211017153006 17 113 0.0 3.2 0.00 0.00 0.00 67 1026.0
20211017152804 17 116 0.0 3.2 0.00 0.00 0.00 67 1026.1
20211017152606 17 119 0.0 3.2 0.00 0.00 0.00 68 1026.1
20211017152405 17 132 0.0 1.6 0.00 0.00 0.00 70 1026.1
20211017152205 17 132 0.0 1.6 0.00 0.00 0.00 72 1026.1
20211017152005 17 132 0.0 1.6 0.00 0.00 0.00 68 1026.1
20211017151806 16 0 0.0 0.0 0.00 0.00 0.00 73 1026.1
20211017151604 16 0 0.0 0.0 0.00 0.00 0.00 71 1026.1
20211017151404 16 80 0.0 1.6 0.00 0.00 0.00 72 1026.2
20211017151206 16 80 0.0 1.6 0.00 0.00 0.00 71 1026.2
20211017151005 16 79 0.0 1.6 0.00 0.00 0.00 71 1026.2
20211017150805 16 79 0.0 1.6 0.00 0.00 0.00 71 1026.2
20211017150605 16 87 0.0 3.2 0.00 0.00 0.00 70 1026.1
20211017150404 16 90 0.0 3.2 0.00 0.00 0.00 72 1026.2
20211017150206 16 91 0.0 3.2 0.00 0.00 0.00 73 1026.1
20211017150005 15 91 0.0 3.2 0.00 0.00 0.00 71 1026.2
20211017145805 15 92 0.0 3.2 0.00 0.00 0.00 71 1026.2
20211017145604 15 94 0.0 3.2 0.00 0.00 0.00 71 1026.2
20211017145404 15 88 0.0 3.2 0.00 0.00 0.00 73 1026.2
20211017145204 15 88 0.0 3.2 0.00 0.00 0.00 73 1026.2
20211017145006 15 87 0.0 3.2 0.00 0.00 0.00 75 1026.3
20211017144805 15 81 0.0 1.6 0.00 0.00 0.00 74 1026.3
20211017144605 15 81 0.0 1.6 0.00 0.00 0.00 74 1026.2
20211017144405 15 81 0.0 1.6 0.00 0.00 0.00 74 1026.2
20211017144205 15 80 0.0 1.6 0.00 0.00 0.00 74 1026.2
20211017144005 15 81 0.0 1.6 0.00 0.00 0.00 73 1026.2
20211017143807 15 87 0.0 1.6 0.00 0.00 0.00 74 1026.2
20211017143606 15 88 0.0 1.6 0.00 0.00 0.00 78 1026.1
20211017143405 14 87 0.0 1.6 0.00 0.00 0.00 78 1026.1
20211017143205 14 87 0.0 1.6 0.00 0.00 0.00 76 1026.1
20211017143006 14 92 0.0 1.6 0.00 0.00 0.00 76 1026.1
20211017142805 14 85 0.0 1.6 0.00 0.00 0.00 80 1026.1
20211017142605 13 81 0.0 3.2 0.00 0.00 0.00 80 1026.0
20211017142405 13 81 0.0 3.2 0.00 0.00 0.00 82 1025.9
20211017142204 13 76 0.0 3.2 0.00 0.00 0.00 83 1026.0
20211017142005 13 76 0.0 3.2 0.00 0.00 0.00 84 1025.9
20211017141805 13 76 0.0 3.2 0.00 0.00 0.00 86 1025.9
20211017141606 12 34 0.0 1.6 0.00 0.00 0.00 91 1025.9
20211017141405 12 34 0.0 1.6 0.00 0.00 0.00 92 1025.9
20211017141204 12 0 0.0 0.0 0.00 0.00 0.00 93 1025.9
20211017141006 12 0 0.0 0.0 0.00 0.00 0.00 94 1025.9
20211017140804 12 0 0.0 0.0 0.00 0.00 0.00 94 1025.9
20211017140605 12 0 0.0 0.0 0.00 0.00 0.00 94 1025.8
20211017140406 12 0 0.0 0.0 0.00 0.00 0.00 94 1025.8
20211017140206 11 0 0.0 0.0 0.00 0.00 0.00 94 1025.8
20211017140005 11 0 0.0 0.0 0.00 0.00 0.00 95 1025.9
20211017135805 11 0 0.0 0.0 0.00 0.00 0.00 95 1025.8
20211017135605 11 0 0.0 0.0 0.00 0.00 0.00 95 1025.8
20211017135405 11 0 0.0 0.0 0.00 0.00 0.00 95 1025.8
20211017135205 11 0 0.0 0.0 0.00 0.00 0.00 95 1025.8
20211017135005 11 0 0.0 0.0 0.00 0.00 0.00 95 1025.8
20211017134805 11 0 0.0 0.0 0.00 0.00 0.00 94 1025.8
20211017134605 11 0 0.0 0.0 0.00 0.00 0.00 94 1025.8
20211017134405 11 0 0.0 0.0 0.00 0.00 0.00 94 1025.8
20211017134205 10 0 0.0 0.0 0.00 0.00 0.00 94 1025.8
20211017134006 10 0 0.0 0.0 0.00 0.00 0.00 94 1025.8
20211017133805 10 0 0.0 0.0 0.00 0.00 0.00 95 1025.7
20211017133605 10 0 0.0 0.0 0.00 0.00 0.00 95 1025.7
20211017133405 10 0 0.0 0.0 0.00 0.00 0.00 95 1025.6
20211017133205 10 0 0.0 0.0 0.00 0.00 0.00 94 1025.6
20211017133006 10 0 0.0 0.0 0.00 0.00 0.00 94 1025.5
20211017132805 9 0 0.0 0.0 0.00 0.00 0.00 94 1025.5
20211017132605 9 0 0.0 0.0 0.00 0.00 0.00 94 1025.5
20211017132405 9 0 0.0 0.0 0.00 0.00 0.00 94 1025.5
20211017132205 9 0 0.0 0.0 0.00 0.00 0.00 94 1025.5
20211017132007 8 0 0.0 0.0 0.00 0.00 0.00 94 1025.5
20211017131804 8 0 0.0 0.0 0.00 0.00 0.00 94 1025.4
20211017131605 8 0 0.0 0.0 0.00 0.00 0.00 94 1025.4
20211017131404 8 0 0.0 0.0 0.00 0.00 0.00 94 1025.4
20211017131204 8 0 0.0 0.0 0.00 0.00 0.00 93 1025.4
20211017131006 8 0 0.0 0.0 0.00 0.00 0.00 93 1025.3
20211017130804 8 0 0.0 0.0 0.00 0.00 0.00 93 1025.3
20211017130604 8 0 0.0 0.0 0.00 0.00 0.00 93 1025.4
20211017130404 8 0 0.0 0.0 0.00 0.00 0.00 93 1025.4
20211017130205 8 0 0.0 0.0 0.00 0.00 0.00 93 1025.4
20211017130005 8 0 0.0 0.0 0.00 0.00 0.00 93 1025.3
20211017125804 8 0 0.0 0.0 0.00 0.00 0.00 93 1025.3
20211017125604 8 0 0.0 0.0 0.00 0.00 0.00 93 1025.4
20211017125404 7 0 0.0 0.0 0.00 0.00 0.00 93 1025.3
20211017125205 7 0 0.0 0.0 0.00 0.00 0.00 93 1025.3
20211017125006 7 0 0.0 0.0 0.00 0.00 0.00 93 1025.3
20211017124805 7 0 0.0 0.0 0.00 0.00 0.00 93 1025.2
20211017124605 7 0 0.0 0.0 0.00 0.00 0.00 93 1025.2
20211017124408 7 0 0.0 0.0 0.00 0.00 0.00 93 1025.1
20211017124205 7 0 0.0 0.0 0.00 0.00 0.00 93 1025.1
20211017124005 7 0 0.0 0.0 0.00 0.00 0.00 93 1025.1
20211017123804 7 0 0.0 0.0 0.00 0.00 0.00 93 1025.1
20211017123606 7 0 0.0 0.0 0.00 0.00 0.00 93 1025.1
20211017123404 7 0 0.0 0.0 0.00 0.00 0.00 93 1025.1
20211017123204 7 0 0.0 0.0 0.00 0.00 0.00 93 1025.1
20211017123004 7 0 0.0 0.0 0.00 0.00 0.00 93 1025.1
20211017122804 7 0 0.0 0.0 0.00 0.00 0.00 93 1025.1
20211017122604 7 0 0.0 0.0 0.00 0.00 0.00 93 1025.1
20211017122404 7 0 0.0 0.0 0.00 0.00 0.00 93 1025.1
20211017122206 7 0 0.0 0.0 0.00 0.00 0.00 93 1025.1
20211017122005 7 0 0.0 0.0 0.00 0.00 0.00 93 1025.0
20211017121805 7 0 0.0 0.0 0.00 0.00 0.00 93 1025.0
20211017121605 7 0 0.0 0.0 0.00 0.00 0.00 93 1025.1
20211017121405 7 0 0.0 0.0 0.00 0.00 0.00 93 1025.1
20211017121205 7 0 0.0 0.0 0.00 0.00 0.00 93 1025.1
20211017121004 7 0 0.0 0.0 0.00 0.00 0.00 93 1025.1
20211017120804 7 0 0.0 0.0 0.00 0.00 0.00 93 1025.0
20211017120604 7 0 0.0 0.0 0.00 0.00 0.00 93 1025.1
20211017120405 7 0 0.0 0.0 0.00 0.00 0.00 93 1025.0
20211017120205 7 0 0.0 0.0 0.00 0.00 0.00 93 1025.0
20211017120006 7 0 0.0 0.0 0.00 0.00 0.00 93 1025.0
20211017115805 7 0 0.0 0.0 0.00 0.00 0.00 93 1025.0
20211017115604 7 0 0.0 0.0 0.00 0.00 0.00 93 1025.1
20211017115405 7 0 0.0 0.0 0.00 0.00 0.00 93 1025.1
20211017115206 7 0 0.0 0.0 0.00 0.00 0.00 93 1025.1
20211017115005 7 0 0.0 0.0 0.00 0.00 0.00 93 1025.1
20211017114805 7 0 0.0 0.0 0.00 0.00 0.00 93 1025.1
20211017114605 7 0 0.0 0.0 0.00 0.00 0.00 93 1025.2
20211017114405 7 0 0.0 0.0 0.00 0.00 0.00 93 1025.2
20211017114204 7 0 0.0 0.0 0.00 0.00 0.00 93 1025.1
20211017114005 7 0 0.0 0.0 0.00 0.00 0.00 93 1025.1
20211017113806 7 0 0.0 0.0 0.00 0.00 0.00 93 1025.1
20211017113605 7 0 0.0 0.0 0.00 0.00 0.00 93 1025.0
20211017113404 7 0 0.0 0.0 0.00 0.00 0.00 93 1025.1
20211017113204 7 0 0.0 0.0 0.00 0.00 0.00 93 1025.0
20211017113005 7 0 0.0 0.0 0.00 0.00 0.00 92 1025.0
20211017112805 7 0 0.0 0.0 0.00 0.00 0.00 92 1024.9
20211017112604 7 0 0.0 0.0 0.00 0.00 0.00 92 1024.9
20211017112404 7 0 0.0 0.0 0.00 0.00 0.00 92 1024.9
20211017112205 7 0 0.0 0.0 0.00 0.00 0.00 92 1024.8
20211017112004 7 0 0.0 0.0 0.00 0.00 0.00 92 1024.8
20211017111805 7 0 0.0 0.0 0.00 0.00 0.00 92 1024.8
20211017111605 7 0 0.0 0.0 0.00 0.00 0.00 92 1024.8
20211017111405 7 0 0.0 0.0 0.00 0.00 0.00 92 1024.8
20211017111205 8 0 0.0 0.0 0.00 0.00 0.00 92 1024.9
20211017111005 8 0 0.0 0.0 0.00 0.00 0.00 92 1024.9
20211017110804 8 0 0.0 0.0 0.00 0.00 0.00 92 1024.9
20211017110605 8 0 0.0 0.0 0.00 0.00 0.00 92 1024.9
20211017110404 8 0 0.0 0.0 0.00 0.00 0.00 92 1024.9
20211017110204 8 0 0.0 0.0 0.00 0.00 0.00 92 1024.8
20211017110005 8 0 0.0 0.0 0.00 0.00 0.00 92 1024.8
20211017105805 8 0 0.0 0.0 0.00 0.00 0.00 92 1024.8
20211017105605 8 0 0.0 0.0 0.00 0.00 0.00 92 1024.8
20211017105405 8 0 0.0 0.0 0.00 0.00 0.00 92 1024.7
20211017105205 8 0 0.0 0.0 0.00 0.00 0.00 92 1024.7
20211017105005 8 0 0.0 0.0 0.00 0.00 0.00 92 1024.7
20211017104805 8 0 0.0 0.0 0.00 0.00 0.00 92 1024.6
20211017104605 8 0 0.0 0.0 0.00 0.00 0.00 92 1024.7
20211017104404 8 0 0.0 0.0 0.00 0.00 0.00 92 1024.7
20211017104204 8 0 0.0 0.0 0.00 0.00 0.00 92 1024.7
20211017104004 8 0 0.0 0.0 0.00 0.00 0.00 92 1024.7
20211017103804 8 0 0.0 0.0 0.00 0.00 0.00 92 1024.6
20211017103604 8 0 0.0 0.0 0.00 0.00 0.00 92 1024.6
20211017103405 8 0 0.0 0.0 0.00 0.00 0.00 92 1024.6
20211017103204 8 0 0.0 0.0 0.00 0.00 0.00 92 1024.5
20211017103004 8 0 0.0 0.0 0.00 0.00 0.00 92 1024.5
20211017102804 8 0 0.0 0.0 0.00 0.00 0.00 92 1024.5
20211017102604 8 0 0.0 0.0 0.00 0.00 0.00 92 1024.5
20211017102404 8 0 0.0 0.0 0.00 0.00 0.00 92 1024.4
20211017102204 8 0 0.0 0.0 0.00 0.00 0.00 92 1024.5
20211017102004 8 0 0.0 0.0 0.00 0.00 0.00 92 1024.5
20211017101804 8 0 0.0 0.0 0.00 0.00 0.00 92 1024.5
20211017101604 8 0 0.0 0.0 0.00 0.00 0.00 92 1024.5
20211017101405 8 0 0.0 0.0 0.00 0.00 0.00 92 1024.5
20211017101205 8 0 0.0 0.0 0.00 0.00 0.00 92 1024.5
20211017101007 8 0 0.0 0.0 0.00 0.00 0.00 92 1024.6
20211017100805 8 0 0.0 0.0 0.00 0.00 0.00 92 1024.6
20211017100605 8 0 0.0 0.0 0.00 0.00 0.00 92 1024.6
20211017100406 8 0 0.0 0.0 0.00 0.00 0.00 92 1024.6
20211017100205 8 0 0.0 0.0 0.00 0.00 0.00 92 1024.5
20211017100005 8 0 0.0 0.0 0.00 0.00 0.00 92 1024.6
20211017095805 8 0 0.0 0.0 0.00 0.00 0.00 92 1024.5
20211017095606 8 0 0.0 0.0 0.00 0.00 0.00 92 1024.5
20211017095405 8 0 0.0 0.0 0.00 0.00 0.00 92 1024.5
20211017095206 8 0 0.0 0.0 0.00 0.00 0.00 92 1024.5
20211017095005 8 0 0.0 0.0 0.00 0.00 0.00 92 1024.5
20211017094805 8 0 0.0 0.0 0.00 0.00 0.00 92 1024.5
20211017094604 8 0 0.0 0.0 0.00 0.00 0.00 92 1024.4
20211017094404 8 0 0.0 0.0 0.00 0.00 0.00 92 1024.4
20211017094204 8 0 0.0 0.0 0.00 0.00 0.00 92 1024.3
20211017094004 8 0 0.0 0.0 0.00 0.00 0.00 92 1024.2
20211017093804 8 0 0.0 0.0 0.00 0.00 0.00 92 1024.3
20211017093604 8 0 0.0 0.0 0.00 0.00 0.00 92 1024.2
20211017093404 8 0 0.0 0.0 0.00 0.00 0.00 92 1024.2
20211017093206 8 0 0.0 0.0 0.00 0.00 0.00 92 1024.3
20211017093004 8 0 0.0 0.0 0.00 0.00 0.00 92 1024.3
20211017092804 8 0 0.0 0.0 0.00 0.00 0.00 92 1024.3
20211017092604 8 0 0.0 0.0 0.00 0.00 0.00 92 1024.3
20211017092406 8 0 0.0 0.0 0.00 0.00 0.00 92 1024.3
20211017092204 8 0 0.0 0.0 0.00 0.00 0.00 92 1024.3
20211017092004 8 0 0.0 0.0 0.00 0.00 0.00 92 1024.3
20211017091804 8 0 0.0 0.0 0.00 0.00 0.00 92 1024.3
20211017091604 8 0 0.0 0.0 0.00 0.00 0.00 92 1024.3
20211017091405 8 0 0.0 0.0 0.00 0.00 0.00 92 1024.3
20211017091205 8 0 0.0 0.0 0.00 0.00 0.00 92 1024.3
20211017091005 8 0 0.0 0.0 0.00 0.00 0.00 92 1024.2
20211017090804 8 0 0.0 0.0 0.00 0.00 0.00 92 1024.2
20211017090604 8 0 0.0 0.0 0.00 0.00 0.00 92 1024.2
20211017090405 8 0 0.0 0.0 0.00 0.00 0.00 92 1024.3
20211017090205 8 0 0.0 0.0 0.00 0.00 0.00 92 1024.2
20211017090004 8 0 0.0 0.0 0.00 0.00 0.00 92 1024.3
20211017085804 8 0 0.0 0.0 0.00 0.00 0.00 92 1024.2
20211017085604 8 0 0.0 0.0 0.00 0.00 0.00 91 1024.3
20211017085405 8 0 0.0 0.0 0.00 0.00 0.00 91 1024.3
20211017085204 8 0 0.0 0.0 0.00 0.00 0.00 91 1024.3
20211017085006 8 0 0.0 0.0 0.00 0.00 0.00 91 1024.3
20211017084804 8 0 0.0 0.0 0.00 0.00 0.00 91 1024.3
20211017084604 8 0 0.0 0.0 0.00 0.00 0.00 91 1024.4
20211017084405 8 0 0.0 0.0 0.00 0.00 0.00 91 1024.4
20211017084204 8 0 0.0 0.0 0.00 0.00 0.00 91 1024.4
20211017084004 8 0 0.0 0.0 0.00 0.00 0.00 91 1024.4
20211017083804 8 0 0.0 0.0 0.00 0.00 0.00 91 1024.5
20211017083604 8 0 0.0 0.0 0.00 0.00 0.00 91 1024.4
20211017083404 8 0 0.0 0.0 0.00 0.00 0.00 91 1024.4
20211017083204 8 0 0.0 0.0 0.00 0.00 0.00 91 1024.4
20211017083004 8 0 0.0 0.0 0.00 0.00 0.00 91 1024.4
20211017082804 8 0 0.0 0.0 0.00 0.00 0.00 91 1024.3
20211017082606 8 0 0.0 0.0 0.00 0.00 0.00 91 1024.3
20211017082404 8 0 0.0 0.0 0.00 0.00 0.00 91 1024.4
20211017082205 8 0 0.0 0.0 0.00 0.00 0.00 91 1024.4
20211017082004 9 0 0.0 0.0 0.00 0.00 0.00 91 1024.3
20211017081804 9 0 0.0 0.0 0.00 0.00 0.00 91 1024.3
20211017081604 9 0 0.0 0.0 0.00 0.00 0.00 91 1024.2
20211017081404 9 0 0.0 0.0 0.00 0.00 0.00 91 1024.2
20211017081204 9 0 0.0 0.0 0.00 0.00 0.00 91 1024.2
20211017081004 9 0 0.0 0.0 0.00 0.00 0.00 91 1024.2
20211017080804 9 0 0.0 0.0 0.00 0.00 0.00 91 1024.2
20211017080604 9 0 0.0 0.0 0.00 0.00 0.00 91 1024.2
20211017080404 9 0 0.0 0.0 0.00 0.00 0.00 91 1024.1
20211017080204 9 0 0.0 0.0 0.00 0.00 0.00 91 1024.1
20211017080005 9 0 0.0 0.0 0.00 0.00 0.00 91 1024.1
20211017075805 9 0 0.0 0.0 0.00 0.00 0.00 91 1024.1
20211017075606 9 0 0.0 0.0 0.00 0.00 0.00 91 1024.2
20211017075404 9 0 0.0 0.0 0.00 0.00 0.00 91 1024.2
20211017075204 9 0 0.0 0.0 0.00 0.00 0.00 91 1024.2
20211017075004 9 0 0.0 0.0 0.00 0.00 0.00 91 1024.3
20211017074805 9 0 0.0 0.0 0.00 0.00 0.00 91 1024.3
20211017074605 9 0 0.0 0.0 0.00 0.00 0.00 91 1024.3
20211017074405 9 0 0.0 0.0 0.00 0.00 0.00 91 1024.2
20211017074205 9 0 0.0 0.0 0.00 0.00 0.00 91 1024.2
20211017074005 9 0 0.0 0.0 0.00 0.00 0.00 90 1024.1
20211017073804 9 0 0.0 0.0 0.00 0.00 0.00 90 1024.1
20211017073605 9 0 0.0 0.0 0.00 0.00 0.00 90 1024.1
20211017073405 9 0 0.0 0.0 0.00 0.00 0.00 90 1024.1
20211017073205 9 0 0.0 0.0 0.00 0.00 0.00 90 1024.2
20211017073005 10 0 0.0 0.0 0.00 0.00 0.00 90 1024.1
20211017072805 10 0 0.0 0.0 0.00 0.00 0.00 90 1024.2
20211017072605 10 0 0.0 0.0 0.00 0.00 0.00 90 1024.1
20211017072405 10 0 0.0 0.0 0.00 0.00 0.00 90 1024.2
20211017072204 10 0 0.0 0.0 0.00 0.00 0.00 90 1024.2
20211017072005 10 0 0.0 0.0 0.00 0.00 0.00 90 1024.1
20211017071804 10 0 0.0 0.0 0.00 0.00 0.00 90 1024.2
20211017071606 10 0 0.0 0.0 0.00 0.00 0.00 90 1024.1
20211017071404 10 0 0.0 0.0 0.00 0.00 0.00 90 1024.1
20211017071204 10 0 0.0 0.0 0.00 0.00 0.00 90 1024.0
20211017071005 10 0 0.0 0.0 0.00 0.00 0.00 90 1024.1
20211017070804 10 0 0.0 0.0 0.00 0.00 0.00 90 1024.1
20211017070604 10 0 0.0 0.0 0.00 0.00 0.00 90 1024.0
20211017070404 10 0 0.0 0.0 0.00 0.00 0.00 90 1024.1
20211017070204 10 0 0.0 0.0 0.00 0.00 0.00 90 1024.1
20211017070005 10 0 0.0 0.0 0.00 0.00 0.00 89 1024.1
20211017065804 10 0 0.0 0.0 0.00 0.00 0.00 89 1024.0
20211017065606 10 0 0.0 0.0 0.00 0.00 0.00 89 1024.0
20211017065404 10 0 0.0 0.0 0.00 0.00 0.00 89 1024.0
20211017065205 10 0 0.0 0.0 0.00 0.00 0.00 89 1023.9
20211017065006 10 0 0.0 0.0 0.00 0.00 0.00 89 1024.0
20211017064805 10 0 0.0 0.0 0.00 0.00 0.00 89 1024.0
20211017064605 10 0 0.0 0.0 0.00 0.00 0.00 89 1024.0
20211017064404 10 0 0.0 0.0 0.00 0.00 0.00 89 1023.9
20211017064204 10 0 0.0 0.0 0.00 0.00 0.00 89 1023.9
20211017064004 10 0 0.0 0.0 0.00 0.00 0.00 89 1023.9
20211017063804 10 0 0.0 0.0 0.00 0.00 0.00 89 1024.0
20211017063604 10 0 0.0 0.0 0.00 0.00 0.00 89 1024.0
20211017063404 10 0 0.0 0.0 0.00 0.00 0.00 89 1024.0
20211017063204 10 0 0.0 0.0 0.00 0.00 0.00 89 1024.0
20211017063005 10 0 0.0 0.0 0.00 0.00 0.00 89 1024.0
20211017062804 10 0 0.0 0.0 0.00 0.00 0.00 89 1023.9
20211017062604 10 0 0.0 0.0 0.00 0.00 0.00 89 1024.0
20211017062404 10 0 0.0 0.0 0.00 0.00 0.00 89 1023.9
20211017062204 10 0 0.0 0.0 0.00 0.00 0.00 89 1023.9
20211017062004 10 0 0.0 0.0 0.00 0.00 0.00 89 1024.0
20211017061805 10 0 0.0 0.0 0.00 0.00 0.00 89 1023.9
20211017061604 10 0 0.0 0.0 0.00 0.00 0.00 89 1023.9
20211017061405 10 0 0.0 0.0 0.00 0.00 0.00 89 1023.8
20211017061204 10 0 0.0 0.0 0.00 0.00 0.00 89 1023.8
20211017061004 10 0 0.0 0.0 0.00 0.00 0.00 89 1023.8
20211017060804 10 0 0.0 0.0 0.00 0.00 0.00 89 1023.8
20211017060605 10 0 0.0 0.0 0.00 0.00 0.00 88 1023.8
20211017060404 10 0 0.0 0.0 0.00 0.00 0.00 88 1023.8
20211017060205 10 0 0.0 0.0 0.00 0.00 0.00 88 1023.7
20211017060005 10 0 0.0 0.0 0.00 0.00 0.00 88 1023.7
20211017055805 10 0 0.0 0.0 0.00 0.00 0.00 88 1023.7
20211017055606 10 0 0.0 0.0 0.00 0.00 0.00 88 1023.7
20211017055405 10 0 0.0 0.0 0.00 0.00 0.00 88 1023.7
20211017055205 10 0 0.0 0.0 0.00 0.00 0.00 88 1023.7
20211017055005 10 0 0.0 0.0 0.00 0.00 0.00 88 1023.7
20211017054804 10 0 0.0 0.0 0.00 0.00 0.00 88 1023.7
20211017054605 10 0 0.0 0.0 0.00 0.00 0.00 88 1023.7
20211017054405 10 0 0.0 0.0 0.00 0.00 0.00 88 1023.7
20211017054205 10 0 0.0 0.0 0.00 0.00 0.00 87 1023.7
20211017054005 10 0 0.0 0.0 0.00 0.00 0.00 87 1023.7
20211017053805 10 0 0.0 0.0 0.00 0.00 0.00 87 1023.7
20211017053605 10 0 0.0 0.0 0.00 0.00 0.00 87 1023.7
20211017053404 10 0 0.0 0.0 0.00 0.00 0.00 86 1023.6
20211017053204 10 0 0.0 0.0 0.00 0.00 0.00 86 1023.6
20211017053004 10 0 0.0 0.0 0.00 0.00 0.00 86 1023.6
20211017052804 10 0 0.0 0.0 0.00 0.00 0.00 86 1023.7
20211017052604 10 0 0.0 0.0 0.00 0.00 0.00 86 1023.7
20211017052405 10 0 0.0 0.0 0.00 0.00 0.00 86 1023.6
20211017052205 10 0 0.0 0.0 0.00 0.00 0.00 86 1023.6
20211017052004 10 0 0.0 0.0 0.00 0.00 0.00 86 1023.6
20211017051804 11 0 0.0 0.0 0.00 0.00 0.00 86 1023.7
20211017051604 11 0 0.0 0.0 0.00 0.00 0.00 86 1023.7
20211017051405 11 0 0.0 0.0 0.00 0.00 0.00 86 1023.8
20211017051205 11 0 0.0 0.0 0.00 0.00 0.00 86 1023.7
20211017051005 11 0 0.0 0.0 0.00 0.00 0.00 86 1023.7
20211017050806 11 0 0.0 0.0 0.00 0.00 0.00 86 1023.7
20211017050605 11 0 0.0 0.0 0.00 0.00 0.00 86 1023.6
20211017050404 11 0 0.0 0.0 0.00 0.00 0.00 85 1023.6
20211017050205 11 0 0.0 0.0 0.00 0.00 0.00 85 1023.6
20211017050005 11 0 0.0 0.0 0.00 0.00 0.00 85 1023.6
20211017045804 11 0 0.0 0.0 0.00 0.00 0.00 85 1023.7
20211017045604 11 0 0.0 0.0 0.00 0.00 0.00 85 1023.7
20211017045404 11 0 0.0 0.0 0.00 0.00 0.00 85 1023.7
20211017045204 11 0 0.0 0.0 0.00 0.00 0.00 85 1023.8
20211017045006 11 0 0.0 0.0 0.00 0.00 0.00 85 1023.7
20211017044804 11 0 0.0 0.0 0.00 0.00 0.00 85 1023.7
20211017044605 11 0 0.0 0.0 0.00 0.00 0.00 85 1023.7
20211017044404 11 0 0.0 0.0 0.00 0.00 0.00 85 1023.8
20211017044204 11 0 0.0 0.0 0.00 0.00 0.00 85 1023.7
20211017044005 11 0 0.0 0.0 0.00 0.00 0.00 85 1023.7
20211017043804 11 0 0.0 0.0 0.00 0.00 0.00 85 1023.8
20211017043605 11 0 0.0 0.0 0.00 0.00 0.00 85 1023.8
20211017043404 11 0 0.0 0.0 0.00 0.00 0.00 85 1023.8
20211017043205 11 0 0.0 0.0 0.00 0.00 0.00 85 1023.7
20211017043005 11 0 0.0 0.0 0.00 0.00 0.00 85 1023.8
20211017042806 11 0 0.0 0.0 0.00 0.00 0.00 85 1023.8
20211017042604 11 0 0.0 0.0 0.00 0.00 0.00 85 1023.9
20211017042404 11 0 0.0 0.0 0.00 0.00 0.00 85 1023.9
20211017042204 11 0 0.0 0.0 0.00 0.00 0.00 84 1023.8
20211017042004 11 0 0.0 0.0 0.00 0.00 0.00 84 1023.9
20211017041805 11 0 0.0 0.0 0.00 0.00 0.00 84 1023.9
20211017041604 11 0 0.0 0.0 0.00 0.00 0.00 84 1023.8
20211017041405 11 0 0.0 0.0 0.00 0.00 0.00 84 1023.8
20211017041205 11 0 0.0 0.0 0.00 0.00 0.00 83 1023.8
20211017041005 11 0 0.0 0.0 0.00 0.00 0.00 83 1023.8
20211017040805 11 0 0.0 0.0 0.00 0.00 0.00 83 1023.8
20211017040605 12 0 0.0 0.0 0.00 0.00 0.00 83 1023.8
20211017040404 12 0 0.0 0.0 0.00 0.00 0.00 83 1023.8
20211017040205 12 0 0.0 0.0 0.00 0.00 0.00 83 1023.8
20211017040004 12 0 0.0 0.0 0.00 0.00 0.00 83 1023.8
20211017035805 12 0 0.0 0.0 0.00 0.00 0.00 83 1023.8
20211017035605 12 0 0.0 0.0 0.00 0.00 0.00 83 1023.7
20211017035405 12 0 0.0 0.0 0.00 0.00 0.00 83 1023.8
20211017035205 12 0 0.0 0.0 0.00 0.00 0.00 82 1023.8
20211017035005 12 0 0.0 0.0 0.00 0.00 0.00 82 1023.8
20211017034805 12 0 0.0 0.0 0.00 0.00 0.00 82 1023.9
20211017034604 12 0 0.0 0.0 0.00 0.00 0.00 82 1023.9
20211017034404 12 0 0.0 0.0 0.00 0.00 0.00 82 1023.9
20211017034205 12 0 0.0 0.0 0.00 0.00 0.00 82 1023.9
20211017034004 12 0 0.0 0.0 0.00 0.00 0.00 82 1023.9
20211017033805 12 0 0.0 0.0 0.00 0.00 0.00 82 1023.9
20211017033604 12 0 0.0 0.0 0.00 0.00 0.00 82 1023.9
20211017033405 12 0 0.0 0.0 0.00 0.00 0.00 82 1023.9
20211017033205 12 0 0.0 0.0 0.00 0.00 0.00 82 1023.9
20211017033005 12 0 0.0 0.0 0.00 0.00 0.00 81 1023.9
20211017032804 12 0 0.0 0.0 0.00 0.00 0.00 81 1023.9
20211017032605 12 0 0.0 0.0 0.00 0.00 0.00 82 1023.9
20211017032405 12 0 0.0 0.0 0.00 0.00 0.00 82 1023.8
20211017032205 12 0 0.0 0.0 0.00 0.00 0.00 83 1023.8
20211017032004 12 0 0.0 0.0 0.00 0.00 0.00 83 1023.8
20211017031804 12 0 0.0 0.0 0.00 0.00 0.00 82 1023.8
20211017031605 12 0 0.0 0.0 0.00 0.00 0.00 81 1023.8
20211017031404 12 0 0.0 0.0 0.00 0.00 0.00 81 1023.8
20211017031205 12 0 0.0 0.0 0.00 0.00 0.00 81 1023.8
20211017031004 12 0 0.0 0.0 0.00 0.00 0.00 81 1023.8
20211017030804 12 0 0.0 0.0 0.00 0.00 0.00 81 1023.8
20211017030605 12 0 0.0 0.0 0.00 0.00 0.00 81 1023.7
20211017030404 12 0 0.0 0.0 0.00 0.00 0.00 81 1023.7
20211017030205 12 0 0.0 0.0 0.00 0.00 0.00 81 1023.8
20211017030005 12 0 0.0 0.0 0.00 0.00 0.00 81 1023.7
20211017025804 12 0 0.0 0.0 0.00 0.00 0.00 81 1023.7
20211017025605 12 0 0.0 0.0 0.00 0.00 0.00 81 1023.7
20211017025204 12 0 0.0 0.0 0.00 0.00 0.00 81 1023.7
20211017025005 12 0 0.0 0.0 0.00 0.00 0.00 81 1023.6
20211017024805 12 0 0.0 0.0 0.00 0.00 0.00 81 1023.6
20211017024604 12 0 0.0 0.0 0.00 0.00 0.00 81 1023.6
20211017024405 12 0 0.0 0.0 0.00 0.00 0.00 81 1023.6
20211017024204 12 0 0.0 0.0 0.00 0.00 0.00 81 1023.5
20211017024005 12 0 0.0 0.0 0.00 0.00 0.00 82 1023.5
20211017023805 12 0 0.0 0.0 0.00 0.00 0.00 82 1023.5
20211017023606 12 0 0.0 0.0 0.00 0.00 0.00 82 1023.5
20211017023404 12 0 0.0 0.0 0.00 0.00 0.00 82 1023.5
20211017023205 12 0 0.0 0.0 0.00 0.00 0.00 82 1023.5
20211017023005 12 0 0.0 0.0 0.00 0.00 0.00 82 1023.5
20211017022805 12 0 0.0 0.0 0.00 0.00 0.00 82 1023.5
20211017022604 12 0 0.0 0.0 0.00 0.00 0.00 82 1023.5
20211017022404 12 0 0.0 0.0 0.00 0.00 0.00 82 1023.5
20211017022205 12 0 0.0 0.0 0.00 0.00 0.00 81 1023.4
20211017022005 12 0 0.0 0.0 0.00 0.00 0.00 81 1023.4
20211017021805 12 0 0.0 0.0 0.00 0.00 0.00 82 1023.4
20211017021604 12 0 0.0 0.0 0.00 0.00 0.00 82 1023.4
20211017021405 13 0 0.0 0.0 0.00 0.00 0.00 82 1023.4
20211017021204 13 0 0.0 0.0 0.00 0.00 0.00 82 1023.4
20211017021004 13 0 0.0 0.0 0.00 0.00 0.00 82 1023.4
20211017020804 13 0 0.0 0.0 0.00 0.00 0.00 81 1023.4
20211017020604 13 0 0.0 0.0 0.00 0.00 0.00 81 1023.4
20211017020404 13 0 0.0 0.0 0.00 0.00 0.00 81 1023.4
20211017020204 13 0 0.0 0.0 0.00 0.00 0.00 81 1023.4
20211017020004 13 0 0.0 0.0 0.00 0.00 0.00 80 1023.4
20211017015804 13 0 0.0 0.0 0.00 0.00 0.00 80 1023.3
20211017015604 13 0 0.0 0.0 0.00 0.00 0.00 80 1023.3
20211017015405 13 0 0.0 0.0 0.00 0.00 0.00 80 1023.3
20211017015204 13 0 0.0 0.0 0.00 0.00 0.00 80 1023.2
20211017015004 13 0 0.0 0.0 0.00 0.00 0.00 81 1023.2
20211017014805 13 0 0.0 0.0 0.00 0.00 0.00 81 1023.2
20211017014605 13 0 0.0 0.0 0.00 0.00 0.00 81 1023.1
20211017014406 13 0 0.0 0.0 0.00 0.00 0.00 81 1023.1
20211017014205 13 0 0.0 0.0 0.00 0.00 0.00 81 1023.1
20211017014004 13 0 0.0 0.0 0.00 0.00 0.00 81 1023.1
20211017013804 13 0 0.0 0.0 0.00 0.00 0.00 81 1023.1
20211017013604 13 0 0.0 0.0 0.00 0.00 0.00 81 1023.1
20211017013404 13 0 0.0 0.0 0.00 0.00 0.00 81 1023.2
20211017013204 13 0 0.0 0.0 0.00 0.00 0.00 81 1023.2
20211017013005 13 0 0.0 0.0 0.00 0.00 0.00 81 1023.1
20211017012805 13 0 0.0 0.0 0.00 0.00 0.00 81 1023.1
20211017012606 13 0 0.0 0.0 0.00 0.00 0.00 81 1023.1
20211017012405 13 0 0.0 0.0 0.00 0.00 0.00 81 1023.1
20211017012204 13 0 0.0 0.0 0.00 0.00 0.00 80 1023.1
20211017012004 13 0 0.0 0.0 0.00 0.00 0.00 80 1023.1
20211017011804 13 0 0.0 0.0 0.00 0.00 0.00 80 1023.1
20211017011604 13 0 0.0 0.0 0.00 0.00 0.00 80 1023.0
20211017011404 13 0 0.0 0.0 0.00 0.00 0.00 80 1023.0
20211017011204 13 0 0.0 0.0 0.00 0.00 0.00 80 1023.0
20211017011005 14 0 0.0 0.0 0.00 0.00 0.00 79 1023.0
20211017010805 14 0 0.0 0.0 0.00 0.00 0.00 79 1023.0
20211017010604 14 0 0.0 0.0 0.00 0.00 0.00 79 1022.9
20211017010405 14 0 0.0 0.0 0.00 0.00 0.00 79 1022.9
20211017010205 14 0 0.0 0.0 0.00 0.00 0.00 78 1022.9
20211017010004 14 0 0.0 0.0 0.00 0.00 0.00 78 1022.9
20211017005804 14 0 0.0 0.0 0.00 0.00 0.00 78 1022.9
20211017005604 14 0 0.0 0.0 0.00 0.00 0.00 77 1022.9
20211017005404 14 0 0.0 0.0 0.00 0.00 0.00 77 1022.9
20211017005205 15 0 0.0 0.0 0.00 0.00 0.00 76 1022.9
20211017005005 15 0 0.0 0.0 0.00 0.00 0.00 76 1022.9
20211017004804 15 0 0.0 0.0 0.00 0.00 0.00 75 1022.8
20211017004604 15 0 0.0 0.0 0.00 0.00 0.00 74 1022.9
20211017004404 15 0 0.0 0.0 0.00 0.00 0.00 74 1022.8
20211017004204 15 0 0.0 0.0 0.00 0.00 0.00 73 1022.8
20211017004004 15 0 0.0 0.0 0.00 0.00 0.00 74 1022.7
20211017003805 15 0 0.0 0.0 0.00 0.00 0.00 73 1022.7
20211017003604 15 0 0.0 0.0 0.00 0.00 0.00 73 1022.6
20211017003404 15 0 0.0 0.0 0.00 0.00 0.00 73 1022.6
20211017003204 15 0 0.0 0.0 0.00 0.00 0.00 73 1022.6
20211017003005 15 0 0.0 0.0 0.00 0.00 0.00 73 1022.5
20211017002804 16 0 0.0 0.0 0.00 0.00 0.00 72 1022.6
20211017002605 16 0 0.0 0.0 0.00 0.00 0.00 71 1022.5
20211017002403 16 0 0.0 0.0 0.00 0.00 0.00 71 1022.5
20211017002205 16 0 0.0 0.0 0.00 0.00 0.00 70 1022.5
20211017002005 16 0 0.0 0.0 0.00 0.00 0.00 69 1022.4
20211017001804 16 0 0.0 0.0 0.00 0.00 0.00 69 1022.4
20211017001605 16 0 0.0 0.0 0.00 0.00 0.00 69 1022.4
20211017001404 16 0 0.0 0.0 0.00 0.00 0.00 69 1022.3
20211017001204 16 0 0.0 0.0 0.00 0.00 0.00 67 1022.3
20211017001004 17 0 0.0 0.0 0.00 0.00 0.00 67 1022.3
20211017000804 17 0 0.0 0.0 0.00 0.00 0.00 67 1022.2
20211017000604 17 0 0.0 0.0 0.00 0.00 0.00 65 1022.2
20211017000404 17 0 0.0 0.0 0.00 0.00 0.00 65 1022.3
20211017000204 17 0 0.0 0.0 0.00 0.00 0.00 64 1022.3
20211017000005 17 0 0.0 0.0 0.00 0.00 0.00 64 1022.2
20211016235804 17 0 0.0 0.0 0.00 0.00 0.00 64 1022.3
20211016235605 17 0 0.0 0.0 0.00 0.00 0.00 63 1022.2
20211016235404 17 0 0.0 0.0 0.00 0.00 0.00 62 1022.2
20211016235205 18 0 0.0 0.0 0.00 0.00 0.00 61 1022.2
20211016235003 18 0 0.0 0.0 0.00 0.00 0.00 60 1022.2
20211016234804 18 0 0.0 0.0 0.00 0.00 0.00 60 1022.1
20211016234605 18 0 0.0 0.0 0.00 0.00 0.00 60 1022.1
20211016234404 18 0 0.0 0.0 0.00 0.00 0.00 58 1022.2
20211016234205 18 0 0.0 0.0 0.00 0.00 0.00 59 1022.1
20211016234004 18 0 0.0 0.0 0.00 0.00 0.00 58 1022.1
20211016233804 18 0 0.0 0.0 0.00 0.00 0.00 57 1022.1
20211016233604 19 0 0.0 0.0 0.00 0.00 0.00 56 1022.1
20211016233404 19 0 0.0 0.0 0.00 0.00 0.00 56 1022.1
20211016233204 20 0 0.0 0.0 0.00 0.00 0.00 56 1022.0
20211016233004 20 0 0.0 0.0 0.00 0.00 0.00 55 1022.1
20211016232804 20 0 0.0 0.0 0.00 0.00 0.00 55 1022.1
20211016232604 20 0 0.0 0.0 0.00 0.00 0.00 56 1022.1
20211016232404 20 0 0.0 0.0 0.00 0.00 0.00 57 1022.1
20211016232204 20 0 0.0 0.0 0.00 0.00 0.00 56 1022.1
20211016232004 21 0 0.0 0.0 0.00 0.00 0.00 58 1022.1
20211016231805 21 0 0.0 0.0 0.00 0.00 0.00 56 1022.1
20211016231604 21 0 0.0 0.0 0.00 0.00 0.00 58 1022.1
20211016231405 21 0 0.0 0.0 0.00 0.00 0.00 56 1022.1
20211016231205 21 0 0.0 0.0 0.00 0.00 0.00 54 1022.1
20211016231004 21 0 0.0 0.0 0.00 0.00 0.00 52 1022.0
20211016230804 21 0 0.0 0.0 0.00 0.00 0.00 53 1022.0
20211016230606 21 0 0.0 0.0 0.00 0.00 0.00 52 1022.0
20211016230404 21 35 0.0 1.6 0.00 0.00 0.00 51 1022.0
20211016230204 22 35 0.0 1.6 0.00 0.00 0.00 51 1021.9
20211016230005 22 35 0.0 1.6 0.00 0.00 0.00 48 1021.9
20211016225804 22 27 0.0 1.6 0.00 0.00 0.00 50 1021.9
20211016225604 22 21 0.0 1.6 0.00 0.00 0.00 48 1021.9
20211016225404 22 17 0.0 1.6 0.00 0.00 0.00 49 1021.9
20211016225204 22 13 0.0 1.6 0.00 0.00 0.00 50 1021.9
20211016225004 22 11 0.0 1.6 0.00 0.00 0.00 48 1022.0
20211016224804 22 4 0.0 1.6 0.00 0.00 0.00 52 1021.9
20211016224605 21 322 0.0 1.6 0.00 0.00 0.00 51 1021.9
20211016224404 21 328 0.0 1.6 0.00 0.00 0.00 50 1021.8
20211016224204 21 331 0.0 1.6 0.00 0.00 0.00 51 1021.8
20211016224005 22 342 0.0 1.6 0.00 0.00 0.00 49 1021.8
20211016223805 22 345 0.0 1.6 0.00 0.00 0.00 48 1021.9
20211016223605 22 49 0.0 1.6 0.00 0.00 0.00 48 1021.8
20211016223404 22 39 0.0 1.6 0.00 0.00 0.00 48 1021.9
20211016223204 22 352 0.0 1.6 0.00 0.00 0.00 51 1021.9
20211016223005 22 341 0.0 1.6 0.00 0.00 0.00 47 1021.8
20211016222804 22 338 0.0 1.6 0.00 0.00 0.00 47 1021.8
20211016222605 22 333 0.0 1.6 0.00 0.00 0.00 46 1021.9
20211016222404 22 331 0.0 1.6 0.00 0.00 0.00 51 1021.9
20211016222203 22 0 0.0 0.0 0.00 0.00 0.00 48 1021.9
20211016222004 22 0 0.0 0.0 0.00 0.00 0.00 49 1021.9
20211016221804 22 253 0.0 1.6 0.00 0.00 0.00 47 1021.8
20211016221605 22 244 0.0 1.6 0.00 0.00 0.00 49 1021.8
20211016221404 22 268 0.0 1.6 0.00 0.00 0.00 44 1021.9
20211016221205 22 313 0.0 1.6 0.00 0.00 0.00 46 1021.9
20211016221004 22 319 0.0 1.6 0.00 0.00 0.00 46 1021.8
20211016220804 22 350 0.0 1.6 0.00 0.00 0.00 45 1021.9
20211016220604 22 17 0.0 1.6 0.00 0.00 0.00 46 1021.9
20211016220404 22 47 0.0 3.2 0.00 0.00 0.00 45 1021.8
20211016220204 22 60 0.0 3.2 0.00 0.00 0.00 47 1021.8
20211016220005 22 79 0.0 3.2 0.00 0.00 0.00 43 1021.9
20211016215804 22 86 0.0 3.2 0.00 0.00 0.00 44 1021.9
20211016215603 22 94 0.0 3.2 0.00 0.00 0.00 46 1021.9
20211016215404 22 77 0.0 3.2 0.00 0.00 0.00 45 1021.9
20211016215204 22 63 0.0 3.2 0.00 0.00 0.00 45 1021.9
20211016215004 22 52 0.0 3.2 0.00 0.00 0.00 45 1021.9
20211016214804 22 58 0.0 3.2 0.00 0.00 0.00 46 1022.0
20211016214604 22 56 0.0 3.2 0.00 0.00 0.00 45 1021.9
20211016214404 22 45 0.0 1.6 0.00 0.00 0.00 44 1022.0
20211016214204 22 91 0.0 1.6 0.00 0.00 0.00 48 1021.9
20211016214004 22 114 0.0 1.6 0.00 0.00 0.00 45 1022.0
20211016213804 22 150 0.0 1.6 0.00 0.00 0.00 43 1022.0
20211016213604 22 157 0.0 3.2 0.00 0.00 0.00 44 1021.9
20211016213404 22 44 0.0 4.8 0.00 0.00 0.00 45 1021.9
20211016213204 22 51 1.6 4.8 0.00 0.00 0.00 47 1021.9
20211016213005 22 34 1.6 4.8 0.00 0.00 0.00 45 1021.9
20211016212804 22 37 1.6 4.8 0.00 0.00 0.00 43 1021.9
20211016212604 22 34 1.6 4.8 0.00 0.00 0.00 44 1021.9
20211016212404 22 61 0.0 4.8 0.00 0.00 0.00 43 1021.8
20211016212203 22 46 0.0 3.2 0.00 0.00 0.00 45 1021.9
20211016212004 22 41 0.0 3.2 0.00 0.00 0.00 46 1021.9
20211016211804 22 56 0.0 4.8 0.00 0.00 0.00 43 1021.9
20211016211603 22 54 0.0 4.8 0.00 0.00 0.00 45 1021.9
20211016211404 22 48 0.0 4.8 0.00 0.00 0.00 43 1022.0
20211016211204 22 24 1.6 4.8 0.00 0.00 0.00 46 1022.0
20211016211004 22 1 0.0 4.8 0.00 0.00 0.00 44 1022.0
20211016210804 23 296 1.6 4.8 0.00 0.00 0.00 43 1021.9
20211016210604 23 13 1.6 4.8 0.00 0.00 0.00 43 1022.0
20211016210404 23 25 1.6 4.8 0.00 0.00 0.00 45 1021.9
20211016210204 23 58 1.6 4.8 0.00 0.00 0.00 44 1021.9
20211016210004 23 87 1.6 4.8 0.00 0.00 0.00 47 1021.8
20211016205805 23 92 0.0 4.8 0.00 0.00 0.00 42 1021.9
20211016205603 23 114 0.0 4.8 0.00 0.00 0.00 44 1021.9
20211016205403 23 119 0.0 4.8 0.00 0.00 0.00 43 1021.9
20211016205204 23 158 0.0 4.8 0.00 0.00 0.00 41 1022.0
20211016205004 23 150 0.0 4.8 0.00 0.00 0.00 45 1022.0
20211016204805 23 209 0.0 4.8 0.00 0.00 0.00 48 1021.9
20211016204604 23 13 0.0 3.2 0.00 0.00 0.00 46 1021.9
20211016204404 23 348 0.0 3.2 0.00 0.00 0.00 45 1021.9
20211016204204 23 13 0.0 4.8 0.00 0.00 0.00 46 1022.0
20211016204005 23 10 1.6 4.8 0.00 0.00 0.00 47 1022.0
20211016203804 23 30 1.6 4.8 0.00 0.00 0.00 44 1022.0
20211016203604 23 11 1.6 4.8 0.00 0.00 0.00 45 1022.0
20211016203405 23 65 1.6 8.0 0.00 0.00 0.00 43 1022.0
20211016203205 23 85 1.6 8.0 0.00 0.00 0.00 48 1022.0
20211016203004 23 87 1.6 8.0 0.00 0.00 0.00 46 1022.1
20211016202804 23 85 1.6 8.0 0.00 0.00 0.00 47 1022.1
20211016202605 23 88 1.6 8.0 0.00 0.00 0.00 44 1022.1
20211016202405 23 90 1.6 8.0 0.00 0.00 0.00 41 1022.0
20211016202204 23 308 0.0 3.2 0.00 0.00 0.00 42 1022.2
20211016202005 23 34 1.6 6.4 0.00 0.00 0.00 43 1022.2
20211016201804 23 62 1.6 6.4 0.00 0.00 0.00 43 1022.2
20211016201604 23 63 1.6 6.4 0.00 0.00 0.00 45 1022.2
20211016201404 23 70 1.6 6.4 0.00 0.00 0.00 45 1022.2
20211016201204 23 75 1.6 6.4 0.00 0.00 0.00 45 1022.2
20211016201004 23 77 1.6 6.4 0.00 0.00 0.00 43 1022.2
20211016200804 23 50 1.6 6.4 0.00 0.00 0.00 44 1022.2
20211016200604 23 7 1.6 6.4 0.00 0.00 0.00 46 1022.2
20211016200404 23 15 1.6 6.4 0.00 0.00 0.00 44 1022.2
20211016200205 23 333 1.6 4.8 0.00 0.00 0.00 42 1022.2
20211016200005 23 355 1.6 4.8 0.00 0.00 0.00 42 1022.2
20211016195804 23 52 1.6 6.4 0.00 0.00 0.00 44 1022.2
20211016195404 23 55 1.6 6.4 0.00 0.00 0.00 43 1022.3
20211016195204 23 69 1.6 6.4 0.00 0.00 0.00 45 1022.3
20211016195004 23 78 1.6 6.4 0.00 0.00 0.00 45 1022.2
20211016194805 23 76 1.6 4.8 0.00 0.00 0.00 46 1022.2
20211016194604 23 82 1.6 4.8 0.00 0.00 0.00 45 1022.3
20211016194404 23 85 1.6 4.8 0.00 0.00 0.00 44 1022.3
20211016194205 23 75 1.6 4.8 0.00 0.00 0.00 47 1022.4
20211016194004 23 80 1.6 9.7 0.00 0.00 0.00 46 1022.3
20211016193804 23 74 1.6 9.7 0.00 0.00 0.00 45 1022.4
20211016193604 23 71 1.6 9.7 0.00 0.00 0.00 42 1022.4
20211016193404 23 72 1.6 9.7 0.00 0.00 0.00 43 1022.5
20211016193205 23 68 1.6 9.7 0.00 0.00 0.00 42 1022.4
20211016193004 23 14 0.0 4.8 0.00 0.00 0.00 49 1022.4
20211016192804 23 54 0.0 4.8 0.00 0.00 0.00 46 1022.6
20211016192604 23 76 1.6 4.8 0.00 0.00 0.00 44 1022.6
20211016192404 23 70 1.6 4.8 0.00 0.00 0.00 47 1022.5
20211016192204 23 70 1.6 4.8 0.00 0.00 0.00 48 1022.5
20211016192005 23 70 1.6 6.4 0.00 0.00 0.00 45 1022.6
20211016191804 23 66 1.6 6.4 0.00 0.00 0.00 42 1022.6
20211016191604 23 62 1.6 6.4 0.00 0.00 0.00 44 1022.7
20211016191405 23 62 1.6 6.4 0.00 0.00 0.00 44 1022.6
20211016191204 23 76 1.6 6.4 0.00 0.00 0.00 44 1022.7
20211016191004 23 72 1.6 6.4 0.00 0.00 0.00 42 1022.7
20211016190804 23 71 1.6 6.4 0.00 0.00 0.00 41 1022.8
20211016190605 23 63 1.6 4.8 0.00 0.00 0.00 45 1022.7
20211016190404 23 67 1.6 4.8 0.00 0.00 0.00 42 1022.7
20211016190205 23 48 0.0 3.2 0.00 0.00 0.00 46 1022.7
20211016190004 23 24 0.0 3.2 0.00 0.00 0.00 47 1022.8
20211016185804 23 338 0.0 6.4 0.00 0.00 0.00 45 1022.8
20211016185605 23 313 1.6 6.4 0.00 0.00 0.00 49 1022.8
20211016185404 23 321 1.6 6.4 0.00 0.00 0.00 47 1022.8
20211016185204 23 306 1.6 6.4 0.00 0.00 0.00 43 1022.8
20211016185005 23 311 1.6 6.4 0.00 0.00 0.00 46 1022.9
20211016184804 23 329 1.6 4.8 0.00 0.00 0.00 46 1022.9
20211016184604 23 359 1.6 4.8 0.00 0.00 0.00 46 1023.0
20211016184405 23 48 1.6 6.4 0.00 0.00 0.00 46 1023.0
20211016184204 23 65 1.6 6.4 0.00 0.00 0.00 50 1023.0
20211016184004 22 70 1.6 6.4 0.00 0.00 0.00 47 1023.0
20211016183803 22 78 1.6 8.0 0.00 0.00 0.00 44 1023.1
20211016183604 22 74 1.6 8.0 0.00 0.00 0.00 43 1023.1
20211016183404 22 76 1.6 9.7 0.00 0.00 0.00 47 1023.1
20211016183204 22 77 3.2 9.7 0.00 0.00 0.00 47 1023.2
20211016183005 22 74 3.2 9.7 0.00 0.00 0.00 41 1023.3
20211016182804 22 74 3.2 9.7 0.00 0.00 0.00 41 1023.3
20211016182603 22 76 1.6 9.7 0.00 0.00 0.00 46 1023.3
20211016182403 22 73 1.6 8.0 0.00 0.00 0.00 43 1023.4
20211016182203 22 72 1.6 6.4 0.00 0.00 0.00 44 1023.4
20211016182003 22 77 1.6 6.4 0.00 0.00 0.00 46 1023.4
20211016181804 22 77 0.0 6.4 0.00 0.00 0.00 46 1023.4
20211016181603 22 77 1.6 6.4 0.00 0.00 0.00 45 1023.3
20211016181405 22 81 1.6 6.4 0.00 0.00 0.00 50 1023.4
20211016181206 22 83 1.6 6.4 0.00 0.00 0.00 48 1023.4
20211016181004 22 88 1.6 6.4 0.00 0.00 0.00 48 1023.5
20211016180804 22 84 1.6 6.4 0.00 0.00 0.00 43 1023.5
20211016180604 22 81 1.6 11.3 0.00 0.00 0.00 44 1023.6
20211016180404 22 73 1.6 11.3 0.00 0.00 0.00 49 1023.6
20211016180204 22 75 1.6 11.3 0.00 0.00 0.00 46 1023.7
20211016180004 22 75 1.6 11.3 0.00 0.00 0.00 43 1023.7
20211016175804 22 76 1.6 11.3 0.00 0.00 0.00 47 1023.8
20211016175603 22 79 1.6 11.3 0.00 0.00 0.00 49 1023.8
20211016175404 22 83 1.6 11.3 0.00 0.00 0.00 45 1023.8
20211016175204 21 81 1.6 11.3 0.00 0.00 0.00 52 1023.8
20211016175004 21 80 1.6 11.3 0.00 0.00 0.00 46 1023.9
20211016174804 21 75 1.6 11.3 0.00 0.00 0.00 45 1023.9
20211016174604 21 70 1.6 9.7 0.00 0.00 0.00 44 1023.9
20211016174403 21 73 1.6 9.7 0.00 0.00 0.00 48 1024.0
20211016174204 21 72 1.6 9.7 0.00 0.00 0.00 46 1024.0
20211016174004 21 66 1.6 6.4 0.00 0.00 0.00 45 1024.1
20211016173805 21 83 1.6 6.4 0.00 0.00 0.00 48 1024.0
20211016173605 21 85 1.6 12.9 0.00 0.00 0.00 43 1024.1
20211016173404 21 78 1.6 12.9 0.00 0.00 0.00 47 1024.2
20211016173204 21 78 1.6 12.9 0.00 0.00 0.00 44 1024.2
20211016173004 21 80 3.2 19.3 0.00 0.00 0.00 46 1024.2
20211016172804 21 78 3.2 19.3 0.00 0.00 0.00 47 1024.1
20211016172604 21 80 3.2 19.3 0.00 0.00 0.00 44 1024.1
20211016172404 21 83 3.2 19.3 0.00 0.00 0.00 45 1024.1
20211016172204 21 83 3.2 19.3 0.00 0.00 0.00 43 1024.1
20211016172004 21 83 3.2 14.5 0.00 0.00 0.00 47 1024.1
20211016171804 21 82 3.2 14.5 0.00 0.00 0.00 43 1024.1
20211016171604 21 76 1.6 14.5 0.00 0.00 0.00 45 1024.1
20211016171403 21 77 3.2 12.9 0.00 0.00 0.00 44 1024.1
20211016171203 21 80 3.2 12.9 0.00 0.00 0.00 47 1024.1
20211016171004 20 79 3.2 12.9 0.00 0.00 0.00 51 1024.1
20211016170804 20 78 3.2 12.9 0.00 0.00 0.00 48 1024.1
20211016170604 20 78 3.2 12.9 0.00 0.00 0.00 45 1024.2
20211016170404 20 72 1.6 11.3 0.00 0.00 0.00 45 1024.2
20211016170204 20 69 1.6 9.7 0.00 0.00 0.00 47 1024.2
20211016170004 20 71 1.6 9.7 0.00 0.00 0.00 50 1024.3
20211016165805 20 69 1.6 9.7 0.00 0.00 0.00 48 1024.2
20211016165605 20 75 0.0 6.4 0.00 0.00 0.00 51 1024.4
20211016165406 20 77 1.6 6.4 0.00 0.00 0.00 52 1024.4
20211016165206 20 84 1.6 8.0 0.00 0.00 0.00 51 1024.3
20211016165006 20 86 1.6 8.0 0.00 0.00 0.00 55 1024.4
20211016164805 20 86 1.6 8.0 0.00 0.00 0.00 53 1024.3
20211016164605 20 87 1.6 8.0 0.00 0.00 0.00 49 1024.3
20211016164406 20 90 1.6 9.7 0.00 0.00 0.00 47 1024.3
20211016164206 20 90 1.6 9.7 0.00 0.00 0.00 49 1024.4
20211016164006 20 86 3.2 9.7 0.00 0.00 0.00 49 1024.4
20211016163806 20 88 3.2 9.7 0.00 0.00 0.00 49 1024.4
20211016163606 20 81 3.2 9.7 0.00 0.00 0.00 47 1024.4
20211016163405 20 74 3.2 8.0 0.00 0.00 0.00 51 1024.4
20211016163206 20 71 3.2 8.0 0.00 0.00 0.00 51 1024.5
20211016163006 20 71 1.6 8.0 0.00 0.00 0.00 51 1024.5
20211016162806 20 74 3.2 8.0 0.00 0.00 0.00 53 1024.5
20211016162607 20 81 1.6 8.0 0.00 0.00 0.00 54 1024.5
20211016162406 20 81 1.6 8.0 0.00 0.00 0.00 53 1024.6
20211016162206 20 84 1.6 6.4 0.00 0.00 0.00 55 1024.7
20211016162005 20 84 1.6 6.4 0.00 0.00 0.00 56 1024.7
20211016161806 20 86 1.6 6.4 0.00 0.00 0.00 53 1024.7